createdAt,value
2023-03-03T00:00:25.268Z,100717.92
2023-03-03T00:02:54.279Z,100715.81
2023-03-03T00:05:22.540Z,100713.87
2023-03-03T00:07:51.030Z,100707.95
2023-03-03T00:10:20.908Z,100703.91
2023-03-03T00:12:49.996Z,100703.14
2023-03-03T00:15:20.782Z,100699.78
2023-03-03T00:17:51.270Z,100696.56
2023-03-03T00:20:24.614Z,100696.59
2023-03-03T00:22:54.312Z,100689.89
2023-03-03T00:25:30.986Z,100680.80
2023-03-03T00:28:27.736Z,100680.64
2023-03-03T00:31:00.793Z,100673.65
2023-03-03T00:33:34.905Z,100668.13
2023-03-03T00:36:37.768Z,100669.23
2023-03-03T00:39:31.923Z,100662.31
2023-03-03T00:42:00.789Z,100659.09
2023-03-03T00:44:45.478Z,100656.27
2023-03-03T00:47:52.564Z,100653.11
2023-03-03T00:50:35.001Z,100658.19
2023-03-03T00:53:12.326Z,100645.94
2023-03-03T00:55:40.771Z,100643.95
2023-03-03T00:58:10.153Z,100638.75
2023-03-03T01:00:41.502Z,100640.27
2023-03-03T01:03:14.933Z,100638.08
2023-03-03T01:05:44.715Z,100632.48
2023-03-03T01:08:14.127Z,100628.10
2023-03-03T01:10:52.436Z,100624.53
2023-03-03T01:13:26.400Z,100627.13
2023-03-03T01:15:56.293Z,100624.77
2023-03-03T01:18:24.748Z,100620.23
2023-03-03T01:20:53.435Z,100616.67
2023-03-03T01:23:28.885Z,100617.36
2023-03-03T01:25:58.492Z,100613.04
2023-03-03T01:28:26.777Z,100611.65
2023-03-03T01:30:55.504Z,100612.02
2023-03-03T01:33:23.858Z,100610.36
2023-03-03T01:35:52.232Z,100604.15
2023-03-03T01:38:21.122Z,100604.27
2023-03-03T01:40:54.720Z,100605.29
2023-03-03T01:43:23.714Z,100601.71
2023-03-03T01:45:53.507Z,100601.88
2023-03-03T01:48:26.324Z,100593.96
2023-03-03T01:50:59.460Z,100592.98
2023-03-03T01:53:48.613Z,100585.61
2023-03-03T01:56:17.257Z,100583.73
2023-03-03T01:59:01.615Z,100585.89
2023-03-03T02:01:30.019Z,100583.45
2023-03-03T02:04:01.038Z,100587.30
2023-03-03T02:06:39.603Z,100579.94
2023-03-03T02:09:12.503Z,100580.95
2023-03-03T02:11:43.756Z,100574.24
2023-03-03T02:14:13.543Z,100570.55
2023-03-03T02:16:45.780Z,100568.19
2023-03-03T02:19:53.592Z,100566.71
2023-03-03T02:22:33.252Z,100565.32
2023-03-03T02:25:02.846Z,100564.42
2023-03-03T02:27:39.012Z,100562.79
2023-03-03T02:30:23.572Z,100561.52
2023-03-03T02:32:51.862Z,100563.20
2023-03-03T02:35:31.422Z,100560.18
2023-03-03T02:38:55.696Z,100559.30
2023-03-03T02:41:59.201Z,100553.70
2023-03-03T02:44:33.215Z,100553.21
2023-03-03T02:47:02.004Z,100548.51
2023-03-03T02:49:32.407Z,100547.21
2023-03-03T02:52:01.286Z,100547.21
2023-03-03T02:54:33.120Z,100547.38
2023-03-03T02:57:02.920Z,100547.41
2023-03-03T02:59:31.475Z,100546.61
2023-03-03T03:02:03.336Z,100544.02
2023-03-03T03:04:32.218Z,100539.97
2023-03-03T03:07:02.559Z,100536.75
2023-03-03T03:09:34.108Z,100534.35
2023-03-03T03:12:04.123Z,100533.46
2023-03-03T03:14:34.873Z,100531.61
2023-03-03T03:17:03.551Z,100529.42
2023-03-03T03:19:35.108Z,100525.77
2023-03-03T03:22:04.412Z,100524.58
2023-03-03T03:24:38.735Z,100523.84
2023-03-03T03:27:09.099Z,100522.70
2023-03-03T03:29:38.769Z,100520.08
2023-03-03T03:32:07.548Z,100521.90
2023-03-03T03:34:36.052Z,100518.98
2023-03-03T03:37:13.642Z,100521.19
2023-03-03T03:39:59.123Z,100517.10
2023-03-03T03:42:28.048Z,100514.09
2023-03-03T03:44:57.631Z,100510.27
2023-03-03T03:47:26.113Z,100510.64
2023-03-03T03:49:54.498Z,100506.22
2023-03-03T03:52:22.879Z,100500.64
2023-03-03T03:54:52.287Z,100503.96
2023-03-03T03:57:21.173Z,100499.17
2023-03-03T04:00:12.704Z,100491.86
2023-03-03T04:02:46.014Z,100493.05
2023-03-03T04:05:16.435Z,100488.61
2023-03-03T04:07:45.880Z,100488.77
2023-03-03T04:10:18.211Z,100485.97
2023-03-03T04:12:46.899Z,100486.31
2023-03-03T04:15:16.608Z,100490.05
2023-03-03T04:17:47.656Z,100482.80
2023-03-03T04:20:16.961Z,100484.61
2023-03-03T04:22:48.212Z,100482.80
2023-03-03T04:25:17.737Z,100480.27
2023-03-03T04:27:51.320Z,100475.73
2023-03-03T04:30:21.949Z,100474.96
2023-03-03T04:32:51.560Z,100465.01
2023-03-03T04:35:21.718Z,100463.70
2023-03-03T04:37:50.169Z,100459.55
2023-03-03T04:40:18.857Z,100459.91
2023-03-03T04:42:49.100Z,100459.48
2023-03-03T04:45:23.605Z,100458.62
2023-03-03T04:47:52.292Z,100454.86
2023-03-03T04:50:25.296Z,100453.58
2023-03-03T04:52:55.512Z,100457.19
2023-03-03T04:55:24.091Z,100453.35
2023-03-03T04:57:54.316Z,100455.45
2023-03-03T05:00:22.701Z,100455.45
2023-03-03T05:02:51.200Z,100454.35
2023-03-03T05:05:20.583Z,100456.42
2023-03-03T05:07:48.858Z,100459.48
2023-03-03T05:10:17.240Z,100462.36
2023-03-03T05:12:45.516Z,100457.98
2023-03-03T05:15:16.968Z,100457.98
2023-03-03T05:17:46.174Z,100460.30
2023-03-03T05:20:15.470Z,100459.87
2023-03-03T05:22:44.875Z,100460.08
2023-03-03T05:25:13.766Z,100462.91
2023-03-03T05:27:44.403Z,100461.95
2023-03-03T05:30:13.790Z,100461.25
2023-03-03T05:32:47.097Z,100454.37
2023-03-03T05:35:15.688Z,100456.75
2023-03-03T05:37:48.058Z,100453.95
2023-03-03T05:40:16.956Z,100449.95
2023-03-03T05:42:46.907Z,100443.97
2023-03-03T05:45:15.868Z,100446.61
2023-03-03T05:47:44.969Z,100447.09
2023-03-03T05:50:13.366Z,100446.24
2023-03-03T05:52:41.736Z,100448.48
2023-03-03T05:55:11.517Z,100448.23
2023-03-03T05:57:42.485Z,100445.27
2023-03-03T06:00:12.538Z,100446.17
2023-03-03T06:02:42.611Z,100440.36
2023-03-03T06:05:11.996Z,100441.67
2023-03-03T06:07:40.420Z,100437.95
2023-03-03T06:10:09.221Z,100434.59
2023-03-03T06:12:45.373Z,100434.18
2023-03-03T06:15:13.820Z,100432.22
2023-03-03T06:17:44.601Z,100433.05
2023-03-03T06:20:13.193Z,100432.73
2023-03-03T06:22:42.282Z,100433.53
2023-03-03T06:25:12.211Z,100429.00
2023-03-03T06:27:41.388Z,100427.45
2023-03-03T06:30:11.708Z,100428.55
2023-03-03T06:32:40.348Z,100430.57
2023-03-03T06:35:09.139Z,100424.59
2023-03-03T06:37:38.699Z,100422.19
2023-03-03T06:40:08.975Z,100421.52
2023-03-03T06:42:39.483Z,100420.48
2023-03-03T06:45:09.422Z,100419.03
2023-03-03T06:47:38.148Z,100409.89
2023-03-03T06:50:09.836Z,100413.31
2023-03-03T06:52:38.320Z,100412.48
2023-03-03T06:55:17.442Z,100410.89
2023-03-03T06:57:50.537Z,100409.05
2023-03-03T07:00:31.179Z,100409.67
2023-03-03T07:03:02.353Z,100409.21
2023-03-03T07:05:33.960Z,100408.05
2023-03-03T07:08:03.005Z,100409.23
2023-03-03T07:10:31.588Z,100405.95
2023-03-03T07:13:24.761Z,100408.23
2023-03-03T07:15:54.430Z,100408.00
2023-03-03T07:18:42.519Z,100404.84
2023-03-03T07:21:22.630Z,100399.64
2023-03-03T07:23:54.336Z,100397.39
2023-03-03T07:26:26.368Z,100400.55
2023-03-03T07:28:55.875Z,100398.80
2023-03-03T07:31:39.630Z,100398.85
2023-03-03T07:34:24.725Z,100396.41
2023-03-03T07:37:02.522Z,100397.46
2023-03-03T07:39:34.301Z,100396.55
2023-03-03T07:42:35.126Z,100389.23
2023-03-03T07:45:39.968Z,100391.69
2023-03-03T07:48:13.677Z,100385.64
2023-03-03T07:50:42.569Z,100385.95
2023-03-03T07:53:35.040Z,100382.96
2023-03-03T07:56:31.244Z,100384.30
2023-03-03T07:59:00.069Z,100381.27
2023-03-03T08:01:48.691Z,100379.02
2023-03-03T08:04:21.147Z,100378.65
2023-03-03T08:06:53.371Z,100377.13
2023-03-03T08:09:31.771Z,100375.72
2023-03-03T08:12:06.787Z,100371.33
2023-03-03T08:14:38.218Z,100373.17
2023-03-03T08:17:20.265Z,100368.52
2023-03-03T08:19:51.331Z,100370.34
2023-03-03T08:22:25.699Z,100367.70
2023-03-03T08:24:53.979Z,100368.92
2023-03-03T08:27:22.356Z,100366.04
2023-03-03T08:29:50.634Z,100363.46
2023-03-03T08:32:19.103Z,100359.20
2023-03-03T08:34:47.701Z,100352.48
2023-03-03T08:37:16.903Z,100354.48
2023-03-03T08:39:46.014Z,100353.58
2023-03-03T08:42:16.230Z,100350.84
2023-03-03T08:44:46.947Z,100352.55
2023-03-03T08:47:15.451Z,100351.80
2023-03-03T08:49:44.444Z,100347.85
2023-03-03T08:52:12.932Z,100345.02
2023-03-03T08:54:41.509Z,100339.78
2023-03-03T08:57:10.206Z,100338.52
2023-03-03T08:59:39.428Z,100337.39
2023-03-03T09:02:08.129Z,100327.27
2023-03-03T09:04:37.203Z,100321.79
2023-03-03T09:07:05.667Z,100320.44
2023-03-03T09:09:33.922Z,100318.83
2023-03-03T09:12:17.379Z,100322.20
2023-03-03T09:14:47.309Z,100314.72
2023-03-03T09:17:42.408Z,100317.34
2023-03-03T09:20:34.748Z,100309.64
2023-03-03T09:23:39.479Z,100305.92
2023-03-03T09:26:31.824Z,100306.96
2023-03-03T09:29:15.773Z,100300.67
2023-03-03T09:32:02.501Z,100299.32
2023-03-03T09:34:49.403Z,100292.38
2023-03-03T09:37:34.621Z,100287.31
2023-03-03T09:40:19.509Z,100285.66
2023-03-03T09:42:57.238Z,100283.98
2023-03-03T09:45:37.504Z,100277.16
2023-03-03T09:48:36.203Z,100273.46
2023-03-03T09:51:23.419Z,100269.09
2023-03-03T09:54:05.010Z,100263.05
2023-03-03T09:56:35.690Z,100257.30
2023-03-03T09:59:09.960Z,100249.67
2023-03-03T10:01:54.010Z,100251.52
2023-03-03T10:04:31.917Z,100245.30
2023-03-03T10:07:28.434Z,100242.98
2023-03-03T10:10:28.068Z,100233.81
2023-03-03T10:13:41.727Z,100232.95
2023-03-03T10:16:22.541Z,100228.98
2023-03-03T10:19:02.894Z,100222.09
2023-03-03T10:21:41.676Z,100218.81
2023-03-03T10:24:31.990Z,100220.60
2023-03-03T10:27:34.657Z,100215.49
2023-03-03T10:30:05.229Z,100205.91
2023-03-03T10:32:49.902Z,100211.48
2023-03-03T10:35:18.620Z,100208.45
2023-03-03T10:38:02.588Z,100200.65
2023-03-03T10:40:42.538Z,100199.72
2023-03-03T10:43:35.804Z,100187.53
2023-03-03T10:46:25.602Z,100180.47
2023-03-03T10:49:00.041Z,100172.35
2023-03-03T10:51:57.882Z,100167.27
2023-03-03T10:54:45.116Z,100155.56
2023-03-03T10:57:31.623Z,100144.09
2023-03-03T11:00:44.917Z,100142.27
2023-03-03T11:04:09.940Z,100135.54
2023-03-03T11:07:16.228Z,100122.92
2023-03-03T11:09:53.059Z,100111.46
2023-03-03T11:12:48.590Z,100117.61
2023-03-03T11:16:15.191Z,100113.85
2023-03-03T11:19:22.057Z,100108.30
2023-03-03T11:22:15.547Z,100106.11
2023-03-03T11:24:51.512Z,100105.81
2023-03-03T11:27:48.958Z,100100.23
2023-03-03T11:30:18.269Z,100091.01
2023-03-03T11:32:51.342Z,100098.51
2023-03-03T11:35:29.860Z,100097.09
2023-03-03T11:38:05.005Z,100087.25
2023-03-03T11:40:54.292Z,100084.52
2023-03-03T11:43:36.105Z,100090.92
2023-03-03T11:46:20.323Z,100086.36
2023-03-03T11:48:58.356Z,100088.25
2023-03-03T11:52:21.114Z,100085.89
2023-03-03T11:55:14.457Z,100082.00
2023-03-03T11:58:01.371Z,100080.19
2023-03-03T12:00:59.138Z,100076.36
2023-03-03T12:03:49.739Z,100073.64
2023-03-03T12:06:25.128Z,100072.45
2023-03-03T12:09:01.212Z,100063.60
2023-03-03T12:11:37.621Z,100065.00
2023-03-03T12:14:28.529Z,100065.75
2023-03-03T12:16:59.984Z,100069.67
2023-03-03T12:19:43.723Z,100066.00
2023-03-03T12:22:18.284Z,100060.30
2023-03-03T12:24:50.960Z,100050.45
2023-03-03T12:27:49.741Z,100057.55
2023-03-03T12:30:45.052Z,100055.77
2023-03-03T12:33:23.043Z,100048.33
2023-03-03T12:36:36.521Z,100050.73
2023-03-03T12:39:34.798Z,100044.69
2023-03-03T12:42:45.959Z,100043.23
2023-03-03T12:45:32.266Z,100040.45
2023-03-03T12:48:02.069Z,100036.18
2023-03-03T12:50:56.251Z,100030.96
2023-03-03T12:54:15.289Z,100029.39
2023-03-03T12:56:51.368Z,100025.15
2023-03-03T12:59:44.405Z,100023.33
2023-03-03T13:02:32.487Z,100022.62
2023-03-03T13:05:33.722Z,100019.77
2023-03-03T13:08:37.388Z,100019.11
2023-03-03T13:11:44.651Z,100018.45
2023-03-03T13:14:32.537Z,100011.96
2023-03-03T13:17:49.626Z,100008.70
2023-03-03T13:20:38.431Z,100001.33
2023-03-03T13:24:05.013Z,100000.19
2023-03-03T13:27:42.001Z,99997.05
2023-03-03T13:45:37.000Z,99988.49
2023-03-03T13:48:09.864Z,99988.20
2023-03-03T13:50:46.750Z,99985.15
2023-03-03T13:53:43.610Z,99989.50
2023-03-03T13:56:59.119Z,99978.45
2023-03-03T14:00:41.079Z,99983.65
2023-03-03T14:03:50.413Z,99975.69
2023-03-03T14:06:28.635Z,99975.84
2023-03-03T14:09:42.147Z,99970.38
2023-03-03T14:12:30.269Z,99968.16
2023-03-03T14:15:24.355Z,99971.36
2023-03-03T14:18:30.236Z,99968.41
2023-03-03T14:21:42.049Z,99964.57
2023-03-03T14:24:45.188Z,99964.02
2023-03-03T14:28:02.184Z,99961.75
2023-03-03T14:30:57.485Z,99961.55
2023-03-03T14:34:21.440Z,99951.31
2023-03-03T14:37:26.169Z,99951.39
2023-03-03T14:40:10.182Z,99949.73
2023-03-03T14:43:08.186Z,99946.72
2023-03-03T14:45:38.654Z,99951.19
2023-03-03T14:48:19.284Z,99947.08
2023-03-03T14:50:51.468Z,99948.04
2023-03-03T14:53:19.832Z,99943.45
2023-03-03T14:55:50.523Z,99943.84
2023-03-03T14:58:40.794Z,99940.96
2023-03-03T15:01:17.641Z,99940.84
2023-03-03T15:03:58.444Z,99941.48
2023-03-03T15:06:34.594Z,99937.17
2023-03-03T15:09:51.609Z,99936.69
2023-03-03T15:12:37.360Z,99936.55
2023-03-03T15:15:16.660Z,99936.14
2023-03-03T15:17:55.453Z,99940.17
2023-03-03T15:20:42.681Z,99936.73
2023-03-03T15:23:33.077Z,99936.06
2023-03-03T15:26:20.711Z,99937.27
2023-03-03T15:28:55.538Z,99938.27
2023-03-03T15:31:39.269Z,99941.41
2023-03-03T15:34:43.814Z,99941.36
2023-03-03T15:37:23.554Z,99942.58
2023-03-03T15:40:13.132Z,99945.18
2023-03-03T15:43:10.765Z,99942.46
2023-03-03T15:46:15.973Z,99950.58
2023-03-03T15:48:47.297Z,99945.55
2023-03-03T15:51:16.088Z,99944.86
2023-03-03T15:54:12.930Z,99942.63
2023-03-03T15:56:48.173Z,99941.91
2023-03-03T15:59:22.320Z,99942.70
2023-03-03T16:01:56.844Z,99951.50
2023-03-03T16:04:26.425Z,99947.72
2023-03-03T16:07:28.026Z,99948.50
2023-03-03T16:10:06.033Z,99952.73
2023-03-03T16:13:01.815Z,99950.48
2023-03-03T16:15:50.837Z,99950.13
2023-03-03T16:18:38.115Z,99948.33
2023-03-03T16:21:40.278Z,99950.44
2023-03-03T16:25:40.309Z,99953.00
2023-03-03T16:28:18.622Z,99954.42
2023-03-03T16:30:57.040Z,99952.98
2023-03-03T16:33:44.398Z,99951.53
2023-03-03T16:36:18.997Z,99951.05
2023-03-03T16:38:59.669Z,99954.60
2023-03-03T16:41:43.355Z,99957.03
2023-03-03T16:44:11.786Z,99957.15
2023-03-03T16:46:45.395Z,99956.34
2023-03-03T16:49:27.834Z,99958.52
2023-03-03T16:52:11.340Z,99958.48
2023-03-03T16:54:56.340Z,99950.92
2023-03-03T16:57:48.059Z,99947.88
2023-03-03T17:00:23.255Z,99949.14
2023-03-03T17:03:15.122Z,99949.52
2023-03-03T17:06:04.608Z,99951.86
2023-03-03T17:08:41.873Z,99945.91
2023-03-03T17:11:13.327Z,99950.86
2023-03-03T17:13:49.183Z,99948.77
2023-03-03T17:16:52.702Z,99950.09
2023-03-03T17:19:41.953Z,99948.14
2023-03-03T17:22:19.355Z,99951.99
2023-03-03T17:25:04.916Z,99949.33
2023-03-03T17:27:47.648Z,99953.38
2023-03-03T17:30:44.607Z,99957.80
2023-03-03T17:33:33.400Z,99961.16
2023-03-03T17:36:07.590Z,99962.32
2023-03-03T17:38:53.572Z,99965.33
2023-03-03T17:41:24.210Z,99963.62
2023-03-03T17:43:58.422Z,99967.83
2023-03-03T17:46:38.899Z,99966.40
2023-03-03T17:49:41.480Z,99965.67
2023-03-03T17:52:17.225Z,99963.92
2023-03-03T17:55:08.034Z,99963.39
2023-03-03T17:57:51.699Z,99969.78
2023-03-03T18:00:38.080Z,99965.30
2023-03-03T18:03:09.337Z,99960.00
2023-03-03T18:06:06.485Z,99962.77
2023-03-03T18:08:47.576Z,99963.61
2023-03-03T18:11:30.997Z,99962.86
2023-03-03T18:14:08.924Z,99959.72
2023-03-03T18:16:42.822Z,99957.66
2023-03-03T18:19:39.254Z,99959.09
2023-03-03T18:22:23.101Z,99964.27
2023-03-03T18:24:53.628Z,99960.42
2023-03-03T18:27:33.387Z,99957.13
2023-03-03T18:30:07.928Z,99958.72
2023-03-03T18:32:42.801Z,99958.45
2023-03-03T18:35:33.406Z,99957.77
2023-03-03T18:38:16.952Z,99953.73
2023-03-03T18:41:01.947Z,99951.96
2023-03-03T18:43:41.190Z,99944.64
2023-03-03T18:46:11.383Z,99946.87
2023-03-03T18:48:51.873Z,99951.95
2023-03-03T18:51:38.166Z,99956.58
2023-03-03T18:54:21.401Z,99957.05
2023-03-03T18:57:04.114Z,99961.77
2023-03-03T18:59:41.916Z,99969.57
2023-03-03T19:02:13.285Z,99973.04
2023-03-03T19:04:47.515Z,99975.48
2023-03-03T19:07:26.741Z,99973.78
2023-03-03T19:09:59.068Z,99972.23
2023-03-03T19:12:58.074Z,99974.75
2023-03-03T19:15:36.026Z,99977.70
2023-03-03T19:18:21.427Z,99980.10
2023-03-03T19:21:07.673Z,99980.31
2023-03-03T19:24:00.472Z,99978.55
2023-03-03T19:26:32.395Z,99978.45
2023-03-03T19:29:26.373Z,99975.64
2023-03-03T19:31:57.150Z,99975.89
2023-03-03T19:34:32.934Z,99976.34
2023-03-03T19:37:29.315Z,99981.05
2023-03-03T19:40:31.687Z,99987.73
2023-03-03T19:43:16.560Z,99983.95
2023-03-03T19:45:57.629Z,99982.95
2023-03-03T19:48:49.464Z,99980.62
2023-03-03T19:51:30.238Z,99982.73
2023-03-03T19:54:46.139Z,99978.54
2023-03-03T19:57:37.552Z,99978.22
2023-03-03T20:00:47.819Z,99976.04
2023-03-03T20:03:40.977Z,99976.15
2023-03-03T20:06:24.818Z,99971.52
2023-03-03T20:08:59.139Z,99975.30
2023-03-03T20:12:02.133Z,99972.79
2023-03-03T20:14:44.777Z,99974.40
2023-03-03T20:17:32.377Z,99968.61
2023-03-03T20:20:27.997Z,99968.18
2023-03-03T20:23:38.063Z,99970.38
2023-03-03T20:26:09.308Z,99966.04
2023-03-03T20:29:02.262Z,99965.50
2023-03-03T20:31:52.620Z,99961.33
2023-03-03T20:34:33.946Z,99963.55
2023-03-03T20:37:39.599Z,99966.42
2023-03-03T20:40:20.986Z,99963.43
2023-03-03T20:42:58.687Z,99956.06
2023-03-03T20:45:29.788Z,99962.72
2023-03-03T20:48:32.316Z,99965.32
2023-03-03T20:51:05.320Z,99961.18
2023-03-03T20:53:52.635Z,99964.77
2023-03-03T20:56:53.579Z,99965.42
2023-03-03T20:59:42.032Z,99969.67
2023-03-03T21:02:50.960Z,99965.16
2023-03-03T21:05:20.891Z,99967.91
2023-03-03T21:07:58.679Z,99967.39
2023-03-03T21:10:34.154Z,99968.52
2023-03-03T21:13:26.373Z,99966.08
2023-03-03T21:16:02.245Z,99960.47
2023-03-03T21:18:32.041Z,99958.13
2023-03-03T21:21:01.034Z,99958.89
2023-03-03T21:23:29.630Z,99957.98
2023-03-03T21:26:47.182Z,99962.30
2023-03-03T21:29:21.574Z,99962.25
2023-03-03T21:32:09.638Z,99966.73
2023-03-03T21:34:39.345Z,99968.23
2023-03-03T21:37:12.785Z,99970.19
2023-03-03T21:39:45.815Z,99975.55
2023-03-03T21:42:15.845Z,99979.02
2023-03-03T21:44:50.031Z,99979.48
2023-03-03T21:47:20.222Z,99985.43
2023-03-03T21:50:00.538Z,99989.81
2023-03-03T21:52:29.328Z,99990.88
2023-03-03T21:54:57.815Z,99994.38
2023-03-03T21:57:27.129Z,99993.58
2023-03-03T21:59:57.871Z,99989.88
2023-03-03T22:02:26.360Z,99992.20
2023-03-03T22:04:54.766Z,99995.02
2023-03-03T22:07:23.196Z,99992.48
2023-03-03T22:09:52.092Z,99997.02
2023-03-03T22:12:20.266Z,99999.58
2023-03-03T22:14:49.687Z,99992.63
2023-03-03T22:17:19.500Z,99995.67
2023-03-03T22:19:47.851Z,100002.13
2023-03-03T22:22:20.139Z,100003.75
2023-03-03T22:24:50.262Z,100006.06
2023-03-03T22:27:19.125Z,100001.48
2023-03-03T22:29:47.542Z,100001.20
2023-03-03T22:32:15.849Z,100001.98
2023-03-03T22:34:44.207Z,100003.74
2023-03-03T22:37:12.795Z,99996.29
2023-03-03T22:39:41.178Z,100001.30
2023-03-03T22:42:11.289Z,99996.86
2023-03-03T22:44:40.514Z,100001.58
2023-03-03T22:47:08.980Z,100000.23
2023-03-03T22:49:37.459Z,99998.86
2023-03-03T22:52:05.746Z,100001.48
2023-03-03T22:54:34.633Z,100004.09
2023-03-03T22:57:03.317Z,100004.45
2023-03-03T22:59:32.929Z,100001.23
2023-03-03T23:02:01.836Z,100003.92
2023-03-03T23:04:33.253Z,100005.63
2023-03-03T23:07:02.676Z,100014.89
2023-03-03T23:09:33.716Z,100012.28
2023-03-03T23:12:07.756Z,100007.39
2023-03-03T23:14:36.926Z,100008.11
2023-03-03T23:17:05.614Z,100008.02
2023-03-03T23:19:37.271Z,100009.17
2023-03-03T23:22:05.653Z,100015.04
2023-03-03T23:24:34.046Z,100016.80
2023-03-03T23:27:08.971Z,100019.60
2023-03-03T23:29:38.272Z,100021.39
2023-03-03T23:32:07.595Z,100022.94
2023-03-03T23:34:37.804Z,100014.90
2023-03-03T23:37:08.544Z,100016.13
2023-03-03T23:39:37.025Z,100017.40
2023-03-03T23:42:05.592Z,100014.64
2023-03-03T23:44:34.504Z,100015.06
2023-03-03T23:47:09.746Z,100011.91
2023-03-03T23:49:40.384Z,100014.29
2023-03-03T23:52:09.280Z,100012.49
2023-03-03T23:54:38.161Z,100002.91
2023-03-03T23:57:08.398Z,99999.88
2023-03-03T23:59:36.876Z,99999.05
